sensor_id;sensor_type;location;lat;lon;timestamp;P1;durP1;ratioP1;P2;durP2;ratioP2
80576;SDS011;69937;52.420;10.538;2023-06-22T00:03:25;10.70;;;8.40;;
80576;SDS011;69937;52.420;10.538;2023-06-22T00:08:26;9.98;;;8.05;;
80576;SDS011;69937;52.420;10.538;2023-06-22T00:13:26;11.38;;;9.30;;
80576;SDS011;69937;52.420;10.538;2023-06-22T00:18:27;15.15;;;9.98;;
80576;SDS011;69937;52.420;10.538;2023-06-22T00:23:30;11.52;;;9.00;;
80576;SDS011;69937;52.420;10.538;2023-06-22T00:28:34;13.38;;;9.70;;
80576;SDS011;69937;52.420;10.538;2023-06-22T00:33:34;11.50;;;8.18;;
80576;SDS011;69937;52.420;10.538;2023-06-22T00:38:35;13.20;;;8.85;;
80576;SDS011;69937;52.420;10.538;2023-06-22T00:43:40;14.75;;;9.65;;
80576;SDS011;69937;52.420;10.538;2023-06-22T00:48:42;14.13;;;9.98;;
80576;SDS011;69937;52.420;10.538;2023-06-22T00:53:44;11.52;;;8.57;;
80576;SDS011;69937;52.420;10.538;2023-06-22T00:58:45;11.00;;;9.35;;
80576;SDS011;69937;52.420;10.538;2023-06-22T01:03:47;13.52;;;8.65;;
80576;SDS011;69937;52.420;10.538;2023-06-22T01:08:49;15.57;;;9.40;;
80576;SDS011;69937;52.420;10.538;2023-06-22T01:14:10;14.43;;;10.23;;
80576;SDS011;69937;52.420;10.538;2023-06-22T01:24:45;11.48;;;9.20;;
80576;SDS011;69937;52.420;10.538;2023-06-22T01:35:07;12.00;;;8.90;;
80576;SDS011;69937;52.420;10.538;2023-06-22T01:40:10;12.93;;;9.90;;
80576;SDS011;69937;52.420;10.538;2023-06-22T01:45:11;11.40;;;8.80;;
80576;SDS011;69937;52.420;10.538;2023-06-22T01:50:13;12.30;;;9.23;;
80576;SDS011;69937;52.420;10.538;2023-06-22T01:55:14;11.93;;;9.10;;
80576;SDS011;69937;52.420;10.538;2023-06-22T02:00:17;10.65;;;9.40;;
80576;SDS011;69937;52.420;10.538;2023-06-22T02:05:20;14.27;;;10.07;;
80576;SDS011;69937;52.420;10.538;2023-06-22T02:10:24;12.10;;;8.82;;
80576;SDS011;69937;52.420;10.538;2023-06-22T02:15:26;13.07;;;9.77;;
80576;SDS011;69937;52.420;10.538;2023-06-22T02:20:27;12.70;;;9.60;;
80576;SDS011;69937;52.420;10.538;2023-06-22T02:25:28;11.80;;;9.45;;
80576;SDS011;69937;52.420;10.538;2023-06-22T02:30:29;14.23;;;9.50;;
80576;SDS011;69937;52.420;10.538;2023-06-22T02:35:30;11.55;;;9.68;;
80576;SDS011;69937;52.420;10.538;2023-06-22T02:40:31;14.77;;;10.35;;
80576;SDS011;69937;52.420;10.538;2023-06-22T02:45:32;12.63;;;9.75;;
80576;SDS011;69937;52.420;10.538;2023-06-22T02:50:32;13.05;;;10.00;;
80576;SDS011;69937;52.420;10.538;2023-06-22T02:55:33;15.23;;;10.10;;
80576;SDS011;69937;52.420;10.538;2023-06-22T03:00:34;12.50;;;9.68;;
80576;SDS011;69937;52.420;10.538;2023-06-22T03:05:34;13.88;;;9.60;;
80576;SDS011;69937;52.420;10.538;2023-06-22T03:10:35;13.30;;;9.43;;
80576;SDS011;69937;52.420;10.538;2023-06-22T03:15:36;12.15;;;9.23;;
80576;SDS011;69937;52.420;10.538;2023-06-22T03:20:36;14.50;;;9.45;;
80576;SDS011;69937;52.420;10.538;2023-06-22T03:25:37;17.33;;;9.73;;
80576;SDS011;69937;52.420;10.538;2023-06-22T03:30:37;14.10;;;9.30;;
80576;SDS011;69937;52.420;10.538;2023-06-22T03:35:38;11.20;;;9.30;;
80576;SDS011;69937;52.420;10.538;2023-06-22T03:40:39;11.45;;;8.65;;
80576;SDS011;69937;52.420;10.538;2023-06-22T03:45:39;11.95;;;9.27;;
80576;SDS011;69937;52.420;10.538;2023-06-22T03:50:40;11.05;;;8.65;;
80576;SDS011;69937;52.420;10.538;2023-06-22T03:55:47;11.98;;;9.18;;
80576;SDS011;69937;52.420;10.538;2023-06-22T04:00:50;14.65;;;9.38;;
80576;SDS011;69937;52.420;10.538;2023-06-22T04:05:52;13.82;;;9.13;;
80576;SDS011;69937;52.420;10.538;2023-06-22T04:10:52;11.10;;;8.70;;
80576;SDS011;69937;52.420;10.538;2023-06-22T04:15:53;10.48;;;8.85;;
80576;SDS011;69937;52.420;10.538;2023-06-22T04:20:54;13.52;;;8.70;;
80576;SDS011;69937;52.420;10.538;2023-06-22T04:25:54;14.70;;;9.45;;
80576;SDS011;69937;52.420;10.538;2023-06-22T04:30:56;10.63;;;8.82;;
80576;SDS011;69937;52.420;10.538;2023-06-22T04:35:58;10.45;;;8.57;;
80576;SDS011;69937;52.420;10.538;2023-06-22T04:41:01;12.82;;;9.55;;
80576;SDS011;69937;52.420;10.538;2023-06-22T04:46:03;10.85;;;8.52;;
80576;SDS011;69937;52.420;10.538;2023-06-22T04:51:03;16.90;;;8.23;;
80576;SDS011;69937;52.420;10.538;2023-06-22T04:56:04;13.20;;;8.60;;
80576;SDS011;69937;52.420;10.538;2023-06-22T05:01:05;10.77;;;8.23;;
80576;SDS011;69937;52.420;10.538;2023-06-22T05:06:05;11.30;;;8.27;;
80576;SDS011;69937;52.420;10.538;2023-06-22T05:11:06;10.52;;;7.57;;
80576;SDS011;69937;52.420;10.538;2023-06-22T05:16:07;11.63;;;8.70;;
80576;SDS011;69937;52.420;10.538;2023-06-22T05:21:07;13.32;;;8.00;;
80576;SDS011;69937;52.420;10.538;2023-06-22T05:26:08;8.93;;;7.50;;
80576;SDS011;69937;52.420;10.538;2023-06-22T05:31:10;11.35;;;7.63;;
80576;SDS011;69937;52.420;10.538;2023-06-22T05:36:10;10.70;;;7.18;;
80576;SDS011;69937;52.420;10.538;2023-06-22T05:41:12;8.57;;;6.72;;
80576;SDS011;69937;52.420;10.538;2023-06-22T05:46:13;9.43;;;6.75;;
80576;SDS011;69937;52.420;10.538;2023-06-22T05:51:14;8.25;;;6.65;;
80576;SDS011;69937;52.420;10.538;2023-06-22T05:56:15;9.52;;;6.25;;
80576;SDS011;69937;52.420;10.538;2023-06-22T06:01:17;9.90;;;6.85;;
80576;SDS011;69937;52.420;10.538;2023-06-22T06:06:17;7.65;;;6.32;;
80576;SDS011;69937;52.420;10.538;2023-06-22T06:11:20;9.95;;;5.80;;
80576;SDS011;69937;52.420;10.538;2023-06-22T06:16:21;13.30;;;6.97;;
80576;SDS011;69937;52.420;10.538;2023-06-22T06:21:22;8.60;;;6.40;;
80576;SDS011;69937;52.420;10.538;2023-06-22T06:26:23;10.05;;;5.97;;
80576;SDS011;69937;52.420;10.538;2023-06-22T06:31:29;8.27;;;5.25;;
80576;SDS011;69937;52.420;10.538;2023-06-22T06:36:30;8.02;;;6.38;;
80576;SDS011;69937;52.420;10.538;2023-06-22T06:41:31;6.97;;;5.07;;
80576;SDS011;69937;52.420;10.538;2023-06-22T06:46:32;9.20;;;5.13;;
80576;SDS011;69937;52.420;10.538;2023-06-22T06:51:32;9.00;;;5.90;;
80576;SDS011;69937;52.420;10.538;2023-06-22T06:56:33;6.88;;;4.78;;
80576;SDS011;69937;52.420;10.538;2023-06-22T07:01:34;9.65;;;5.85;;
80576;SDS011;69937;52.420;10.538;2023-06-22T07:06:36;8.80;;;6.38;;
80576;SDS011;69937;52.420;10.538;2023-06-22T07:11:37;8.45;;;5.45;;
80576;SDS011;69937;52.420;10.538;2023-06-22T07:16:38;10.00;;;5.68;;
80576;SDS011;69937;52.420;10.538;2023-06-22T07:21:38;8.75;;;5.68;;
80576;SDS011;69937;52.420;10.538;2023-06-22T07:26:39;7.32;;;5.07;;
80576;SDS011;69937;52.420;10.538;2023-06-22T07:31:45;8.70;;;5.22;;
80576;SDS011;69937;52.420;10.538;2023-06-22T07:36:47;7.40;;;5.50;;
80576;SDS011;69937;52.420;10.538;2023-06-22T07:41:47;7.32;;;5.97;;
80576;SDS011;69937;52.420;10.538;2023-06-22T07:46:48;7.90;;;5.40;;
80576;SDS011;69937;52.420;10.538;2023-06-22T07:51:49;8.43;;;6.20;;
80576;SDS011;69937;52.420;10.538;2023-06-22T07:56:49;9.00;;;5.90;;
80576;SDS011;69937;52.420;10.538;2023-06-22T08:01:50;8.30;;;5.53;;
80576;SDS011;69937;52.420;10.538;2023-06-22T08:06:51;8.45;;;6.35;;
80576;SDS011;69937;52.420;10.538;2023-06-22T08:11:51;6.45;;;5.72;;
80576;SDS011;69937;52.420;10.538;2023-06-22T08:16:52;9.52;;;6.38;;
80576;SDS011;69937;52.420;10.538;2023-06-22T08:21:53;10.32;;;7.60;;
80576;SDS011;69937;52.420;10.538;2023-06-22T08:26:53;13.55;;;6.90;;
80576;SDS011;69937;52.420;10.538;2023-06-22T08:31:54;14.02;;;7.95;;
80576;SDS011;69937;52.420;10.538;2023-06-22T08:36:55;12.25;;;8.55;;
80576;SDS011;69937;52.420;10.538;2023-06-22T08:41:55;15.95;;;8.95;;
80576;SDS011;69937;52.420;10.538;2023-06-22T08:46:56;10.68;;;7.68;;
80576;SDS011;69937;52.420;10.538;2023-06-22T08:51:56;10.80;;;8.18;;
80576;SDS011;69937;52.420;10.538;2023-06-22T08:56:57;9.00;;;7.82;;
80576;SDS011;69937;52.420;10.538;2023-06-22T09:01:58;16.42;;;8.52;;
80576;SDS011;69937;52.420;10.538;2023-06-22T09:06:58;14.63;;;8.98;;
80576;SDS011;69937;52.420;10.538;2023-06-22T09:11:59;13.38;;;8.52;;
80576;SDS011;69937;52.420;10.538;2023-06-22T09:16:59;12.05;;;9.23;;
80576;SDS011;69937;52.420;10.538;2023-06-22T09:22:00;15.20;;;9.48;;
80576;SDS011;69937;52.420;10.538;2023-06-22T09:27:01;14.48;;;9.27;;
80576;SDS011;69937;52.420;10.538;2023-06-22T09:32:01;12.50;;;9.23;;
80576;SDS011;69937;52.420;10.538;2023-06-22T09:37:02;11.30;;;9.55;;
80576;SDS011;69937;52.420;10.538;2023-06-22T09:42:03;11.10;;;8.60;;
80576;SDS011;69937;52.420;10.538;2023-06-22T09:47:06;12.82;;;8.85;;
80576;SDS011;69937;52.420;10.538;2023-06-22T09:52:07;11.82;;;9.55;;
80576;SDS011;69937;52.420;10.538;2023-06-22T09:57:08;10.52;;;8.70;;
80576;SDS011;69937;52.420;10.538;2023-06-22T10:02:08;11.10;;;9.10;;
80576;SDS011;69937;52.420;10.538;2023-06-22T10:07:09;11.35;;;9.13;;
80576;SDS011;69937;52.420;10.538;2023-06-22T10:12:10;11.93;;;9.65;;
80576;SDS011;69937;52.420;10.538;2023-06-22T10:17:11;11.68;;;8.25;;
80576;SDS011;69937;52.420;10.538;2023-06-22T10:22:11;10.55;;;8.35;;
80576;SDS011;69937;52.420;10.538;2023-06-22T10:27:12;11.70;;;9.48;;
80576;SDS011;69937;52.420;10.538;2023-06-22T10:32:13;11.15;;;8.10;;
80576;SDS011;69937;52.420;10.538;2023-06-22T10:37:14;11.73;;;8.05;;
80576;SDS011;69937;52.420;10.538;2023-06-22T10:42:15;10.27;;;8.98;;
80576;SDS011;69937;52.420;10.538;2023-06-22T10:47:15;10.75;;;8.27;;
80576;SDS011;69937;52.420;10.538;2023-06-22T10:52:16;12.43;;;8.27;;
80576;SDS011;69937;52.420;10.538;2023-06-22T10:57:17;10.65;;;8.27;;
80576;SDS011;69937;52.420;10.538;2023-06-22T11:02:17;9.38;;;7.97;;
80576;SDS011;69937;52.420;10.538;2023-06-22T11:07:18;12.10;;;8.05;;
80576;SDS011;69937;52.420;10.538;2023-06-22T11:12:19;11.10;;;8.23;;
80576;SDS011;69937;52.420;10.538;2023-06-22T11:17:19;10.55;;;6.97;;
80576;SDS011;69937;52.420;10.538;2023-06-22T11:22:20;8.73;;;7.20;;
80576;SDS011;69937;52.420;10.538;2023-06-22T11:27:22;9.63;;;7.65;;
80576;SDS011;69937;52.420;10.538;2023-06-22T11:32:22;12.77;;;8.70;;
80576;SDS011;69937;52.420;10.538;2023-06-22T11:37:24;11.32;;;8.52;;
80576;SDS011;69937;52.420;10.538;2023-06-22T11:42:26;14.15;;;7.97;;
80576;SDS011;69937;52.420;10.538;2023-06-22T11:47:29;11.07;;;8.55;;
80576;SDS011;69937;52.420;10.538;2023-06-22T11:52:32;12.00;;;8.73;;
80576;SDS011;69937;52.420;10.538;2023-06-22T11:57:34;9.55;;;8.15;;
80576;SDS011;69937;52.420;10.538;2023-06-22T12:02:36;9.00;;;7.72;;
80576;SDS011;69937;52.420;10.538;2023-06-22T12:07:37;12.40;;;7.75;;
80576;SDS011;69937;52.420;10.538;2023-06-22T12:12:37;9.15;;;7.25;;
80576;SDS011;69937;52.420;10.538;2023-06-22T12:17:38;11.20;;;7.38;;
80576;SDS011;69937;52.420;10.538;2023-06-22T12:22:40;8.93;;;6.38;;
80576;SDS011;69937;52.420;10.538;2023-06-22T12:27:41;8.57;;;6.88;;
80576;SDS011;69937;52.420;10.538;2023-06-22T12:32:44;7.30;;;6.60;;
80576;SDS011;69937;52.420;10.538;2023-06-22T12:37:44;6.80;;;6.10;;
80576;SDS011;69937;52.420;10.538;2023-06-22T12:42:45;7.43;;;6.38;;
80576;SDS011;69937;52.420;10.538;2023-06-22T12:47:46;7.40;;;6.05;;
80576;SDS011;69937;52.420;10.538;2023-06-22T12:52:47;7.38;;;6.45;;
80576;SDS011;69937;52.420;10.538;2023-06-22T12:57:48;7.65;;;6.25;;
80576;SDS011;69937;52.420;10.538;2023-06-22T13:02:48;9.15;;;7.22;;
80576;SDS011;69937;52.420;10.538;2023-06-22T13:07:49;8.13;;;6.40;;
80576;SDS011;69937;52.420;10.538;2023-06-22T13:12:49;7.57;;;6.15;;
80576;SDS011;69937;52.420;10.538;2023-06-22T13:17:50;9.57;;;6.65;;
80576;SDS011;69937;52.420;10.538;2023-06-22T13:22:52;7.90;;;6.18;;
80576;SDS011;69937;52.420;10.538;2023-06-22T13:27:54;8.25;;;5.70;;
80576;SDS011;69937;52.420;10.538;2023-06-22T13:32:54;9.65;;;7.97;;
80576;SDS011;69937;52.420;10.538;2023-06-22T13:37:55;7.55;;;6.45;;
80576;SDS011;69937;52.420;10.538;2023-06-22T13:42:56;12.57;;;6.30;;
80576;SDS011;69937;52.420;10.538;2023-06-22T13:47:57;7.10;;;5.95;;
80576;SDS011;69937;52.420;10.538;2023-06-22T13:52:57;7.15;;;5.55;;
80576;SDS011;69937;52.420;10.538;2023-06-22T13:57:58;7.20;;;5.90;;
80576;SDS011;69937;52.420;10.538;2023-06-22T14:02:58;7.40;;;5.65;;
80576;SDS011;69937;52.420;10.538;2023-06-22T14:07:59;7.93;;;6.35;;
80576;SDS011;69937;52.420;10.538;2023-06-22T14:13:00;10.10;;;5.45;;
80576;SDS011;69937;52.420;10.538;2023-06-22T14:18:01;7.03;;;5.90;;
80576;SDS011;69937;52.420;10.538;2023-06-22T14:23:01;8.13;;;5.88;;
80576;SDS011;69937;52.420;10.538;2023-06-22T14:28:02;9.38;;;6.18;;
80576;SDS011;69937;52.420;10.538;2023-06-22T14:33:03;9.63;;;5.00;;
80576;SDS011;69937;52.420;10.538;2023-06-22T14:38:03;7.82;;;5.75;;
80576;SDS011;69937;52.420;10.538;2023-06-22T14:43:04;9.40;;;5.60;;
80576;SDS011;69937;52.420;10.538;2023-06-22T14:48:05;9.13;;;5.90;;
80576;SDS011;69937;52.420;10.538;2023-06-22T14:53:05;7.30;;;5.72;;
80576;SDS011;69937;52.420;10.538;2023-06-22T14:58:06;6.50;;;5.43;;
80576;SDS011;69937;52.420;10.538;2023-06-22T15:03:07;8.90;;;6.43;;
80576;SDS011;69937;52.420;10.538;2023-06-22T15:08:11;10.50;;;6.40;;
80576;SDS011;69937;52.420;10.538;2023-06-22T15:13:12;10.77;;;6.60;;
80576;SDS011;69937;52.420;10.538;2023-06-22T15:18:13;9.10;;;5.93;;
80576;SDS011;69937;52.420;10.538;2023-06-22T15:23:15;7.22;;;6.07;;
80576;SDS011;69937;52.420;10.538;2023-06-22T15:28:15;6.90;;;5.32;;
80576;SDS011;69937;52.420;10.538;2023-06-22T15:33:16;8.40;;;6.22;;
80576;SDS011;69937;52.420;10.538;2023-06-22T15:38:17;7.93;;;5.63;;
80576;SDS011;69937;52.420;10.538;2023-06-22T15:43:17;6.60;;;5.75;;
80576;SDS011;69937;52.420;10.538;2023-06-22T15:48:20;6.25;;;5.57;;
80576;SDS011;69937;52.420;10.538;2023-06-22T15:53:21;6.65;;;5.63;;
80576;SDS011;69937;52.420;10.538;2023-06-22T15:58:22;6.93;;;5.55;;
80576;SDS011;69937;52.420;10.538;2023-06-22T16:03:23;8.57;;;5.55;;
80576;SDS011;69937;52.420;10.538;2023-06-22T16:08:23;8.07;;;5.35;;
80576;SDS011;69937;52.420;10.538;2023-06-22T16:13:25;7.97;;;5.32;;
80576;SDS011;69937;52.420;10.538;2023-06-22T16:18:25;14.20;;;5.32;;
80576;SDS011;69937;52.420;10.538;2023-06-22T16:23:26;8.40;;;5.35;;
80576;SDS011;69937;52.420;10.538;2023-06-22T16:33:30;8.90;;;4.73;;
80576;SDS011;69937;52.420;10.538;2023-06-22T16:38:30;8.93;;;6.05;;
80576;SDS011;69937;52.420;10.538;2023-06-22T16:43:32;10.35;;;5.72;;
80576;SDS011;69937;52.420;10.538;2023-06-22T16:48:35;7.90;;;6.35;;
80576;SDS011;69937;52.420;10.538;2023-06-22T16:58:37;7.83;;;5.97;;
80576;SDS011;69937;52.420;10.538;2023-06-22T17:03:39;6.82;;;6.13;;
80576;SDS011;69937;52.420;10.538;2023-06-22T17:08:47;8.10;;;5.80;;
80576;SDS011;69937;52.420;10.538;2023-06-22T17:13:48;10.10;;;6.40;;
80576;SDS011;69937;52.420;10.538;2023-06-22T17:18:50;9.98;;;6.70;;
80576;SDS011;69937;52.420;10.538;2023-06-22T17:23:53;10.95;;;6.43;;
80576;SDS011;69937;52.420;10.538;2023-06-22T17:28:54;6.40;;;2.88;;
80576;SDS011;69937;52.420;10.538;2023-06-22T17:34:05;8.30;;;4.00;;
80576;SDS011;69937;52.420;10.538;2023-06-22T17:39:09;3.88;;;2.60;;
80576;SDS011;69937;52.420;10.538;2023-06-22T17:44:21;6.28;;;3.03;;
80576;SDS011;69937;52.420;10.538;2023-06-22T17:49:26;6.78;;;2.45;;
80576;SDS011;69937;52.420;10.538;2023-06-22T17:54:29;4.10;;;2.83;;
80576;SDS011;69937;52.420;10.538;2023-06-22T17:59:31;2.83;;;1.80;;
80576;SDS011;69937;52.420;10.538;2023-06-22T18:04:32;3.75;;;1.75;;
80576;SDS011;69937;52.420;10.538;2023-06-22T18:09:33;6.07;;;1.92;;
80576;SDS011;69937;52.420;10.538;2023-06-22T18:14:34;6.88;;;1.88;;
80576;SDS011;69937;52.420;10.538;2023-06-22T18:19:35;6.93;;;1.67;;
80576;SDS011;69937;52.420;10.538;2023-06-22T18:24:37;3.40;;;1.30;;
80576;SDS011;69937;52.420;10.538;2023-06-22T18:29:40;7.60;;;1.13;;
80576;SDS011;69937;52.420;10.538;2023-06-22T18:34:43;3.70;;;0.82;;
80576;SDS011;69937;52.420;10.538;2023-06-22T18:39:44;2.15;;;1.15;;
80576;SDS011;69937;52.420;10.538;2023-06-22T18:44:52;4.65;;;1.25;;
80576;SDS011;69937;52.420;10.538;2023-06-22T18:49:53;2.08;;;0.95;;
80576;SDS011;69937;52.420;10.538;2023-06-22T18:55:03;3.75;;;1.20;;
80576;SDS011;69937;52.420;10.538;2023-06-22T19:00:06;1.58;;;0.50;;
80576;SDS011;69937;52.420;10.538;2023-06-22T19:15:33;1.98;;;1.20;;
80576;SDS011;69937;52.420;10.538;2023-06-22T19:20:33;4.32;;;2.30;;
80576;SDS011;69937;52.420;10.538;2023-06-22T19:25:34;5.82;;;2.13;;
80576;SDS011;69937;52.420;10.538;2023-06-22T19:30:34;3.58;;;2.65;;
80576;SDS011;69937;52.420;10.538;2023-06-22T19:35:35;4.88;;;1.83;;
80576;SDS011;69937;52.420;10.538;2023-06-22T19:40:38;4.75;;;2.83;;
80576;SDS011;69937;52.420;10.538;2023-06-22T19:45:41;5.72;;;2.50;;
80576;SDS011;69937;52.420;10.538;2023-06-22T19:50:42;5.60;;;3.38;;
80576;SDS011;69937;52.420;10.538;2023-06-22T19:55:45;5.88;;;2.03;;
80576;SDS011;69937;52.420;10.538;2023-06-22T20:05:53;5.38;;;1.67;;
80576;SDS011;69937;52.420;10.538;2023-06-22T20:10:54;9.13;;;2.00;;
80576;SDS011;69937;52.420;10.538;2023-06-22T20:16:07;4.57;;;1.90;;
80576;SDS011;69937;52.420;10.538;2023-06-22T20:21:12;3.17;;;2.17;;
80576;SDS011;69937;52.420;10.538;2023-06-22T20:26:13;3.85;;;1.48;;
80576;SDS011;69937;52.420;10.538;2023-06-22T20:31:16;4.05;;;1.80;;
80576;SDS011;69937;52.420;10.538;2023-06-22T20:36:17;3.40;;;1.95;;
80576;SDS011;69937;52.420;10.538;2023-06-22T20:41:19;4.55;;;2.47;;
80576;SDS011;69937;52.420;10.538;2023-06-22T20:46:20;3.92;;;2.30;;
80576;SDS011;69937;52.420;10.538;2023-06-22T20:51:21;5.25;;;2.58;;
80576;SDS011;69937;52.420;10.538;2023-06-22T20:56:22;5.00;;;2.25;;
80576;SDS011;69937;52.420;10.538;2023-06-22T21:01:23;3.38;;;2.60;;
80576;SDS011;69937;52.420;10.538;2023-06-22T21:06:24;3.60;;;2.50;;
80576;SDS011;69937;52.420;10.538;2023-06-22T21:11:24;9.10;;;2.65;;
80576;SDS011;69937;52.420;10.538;2023-06-22T21:16:27;4.60;;;2.28;;
80576;SDS011;69937;52.420;10.538;2023-06-22T21:21:29;4.82;;;2.05;;
80576;SDS011;69937;52.420;10.538;2023-06-22T21:26:29;4.82;;;2.25;;
80576;SDS011;69937;52.420;10.538;2023-06-22T21:31:32;4.65;;;2.33;;
80576;SDS011;69937;52.420;10.538;2023-06-22T21:36:32;6.10;;;2.40;;
80576;SDS011;69937;52.420;10.538;2023-06-22T21:41:33;3.88;;;2.15;;
80576;SDS011;69937;52.420;10.538;2023-06-22T21:46:34;6.82;;;2.10;;
80576;SDS011;69937;52.420;10.538;2023-06-22T21:51:35;5.68;;;1.90;;
80576;SDS011;69937;52.420;10.538;2023-06-22T21:56:36;11.65;;;2.70;;
80576;SDS011;69937;52.420;10.538;2023-06-22T22:01:37;5.95;;;2.33;;
80576;SDS011;69937;52.420;10.538;2023-06-22T22:06:38;3.67;;;2.70;;
80576;SDS011;69937;52.420;10.538;2023-06-22T22:11:39;6.80;;;3.47;;
80576;SDS011;69937;52.420;10.538;2023-06-22T22:16:40;10.20;;;4.55;;
80576;SDS011;69937;52.420;10.538;2023-06-22T22:21:40;9.80;;;3.45;;
80576;SDS011;69937;52.420;10.538;2023-06-22T22:26:43;6.43;;;3.60;;
80576;SDS011;69937;52.420;10.538;2023-06-22T22:31:44;6.75;;;3.53;;
80576;SDS011;69937;52.420;10.538;2023-06-22T22:36:45;7.03;;;3.00;;
80576;SDS011;69937;52.420;10.538;2023-06-22T22:41:45;7.78;;;4.05;;
80576;SDS011;69937;52.420;10.538;2023-06-22T22:46:46;6.30;;;3.13;;
80576;SDS011;69937;52.420;10.538;2023-06-22T22:51:47;9.48;;;3.25;;
80576;SDS011;69937;52.420;10.538;2023-06-22T22:56:47;9.20;;;3.25;;
80576;SDS011;69937;52.420;10.538;2023-06-22T23:01:48;7.60;;;3.17;;
80576;SDS011;69937;52.420;10.538;2023-06-22T23:06:48;5.18;;;2.72;;
80576;SDS011;69937;52.420;10.538;2023-06-22T23:11:49;9.93;;;3.25;;
80576;SDS011;69937;52.420;10.538;2023-06-22T23:16:49;8.68;;;2.78;;
80576;SDS011;69937;52.420;10.538;2023-06-22T23:21:50;10.60;;;2.90;;
80576;SDS011;69937;52.420;10.538;2023-06-22T23:26:50;9.43;;;2.97;;
80576;SDS011;69937;52.420;10.538;2023-06-22T23:31:54;27.75;;;3.58;;
80576;SDS011;69937;52.420;10.538;2023-06-22T23:36:55;5.47;;;2.72;;
80576;SDS011;69937;52.420;10.538;2023-06-22T23:41:55;6.50;;;2.60;;
80576;SDS011;69937;52.420;10.538;2023-06-22T23:46:57;7.60;;;2.60;;
80576;SDS011;69937;52.420;10.538;2023-06-22T23:51:57;6.32;;;2.75;;
80576;SDS011;69937;52.420;10.538;2023-06-22T23:56:58;8.25;;;3.03;;
